Time;durP1;ratioP1;P1;durP2;ratioP2;P2;SDS_P1;SDS_P2;PMS_P1;PMS_P2;Temp;Humidity;BMP_temperature;BMP_pressure;BME280_temperature;BME280_humidity;BME280_pressure;Samples;Min_cycle;Max_cycle;Signal;HPM_P1;HPM_P2
2021/01/04 00:01:22;;;;;;;;;;;;;;;20.28;44.37;101150.72;5064169;28;1238;-43
2021/01/04 00:03:54;;;;;;;;;;;;;;;20.01;44.67;101151.22;5064838;28;1261;-45
2021/01/04 00:06:28;;;;;;;;;;;;;;;19.70;45.66;101145.88;5062936;28;1285;-50
2021/01/04 00:09:00;;;;;;;;;;;;;;;20.03;45.02;101148.97;5065766;28;1316;-44
2021/01/04 00:11:37;;;;;;;;;;;;;;;20.21;44.45;101152.97;5065072;28;1913;-44
2021/01/04 00:14:21;;;;;;;;;;;;;;;20.04;45.03;101149.81;5048170;28;1214;-50
2021/01/04 00:16:59;;;;;;;;;;;;;;;19.66;45.24;101151.16;5065246;28;1245;-47
2021/01/04 00:19:34;;;;;;;;;;;;;;;20.52;43.96;101150.78;5065047;28;1248;-50
2021/01/04 00:21:59;;;;;;;;;;;;;;;20.90;42.79;101143.78;5060723;28;1305;-45
2021/01/04 00:24:28;;;;;;;;;;;;;;;20.42;44.07;101145.34;5055794;28;819;-53
2021/01/04 00:26:54;;;;;;;;;;;;;;;20.40;44.08;101131.00;5038164;28;859;-55
2021/01/04 00:29:20;;;;;;;;;;;;;;;20.14;44.34;101144.22;5056390;28;752;-44
2021/01/04 00:31:46;;;;;;;;;;;;;;;19.86;44.90;101159.63;5037868;28;1918;-56
2021/01/04 00:34:11;;;;;;;;;;;;;;;20.37;44.40;101159.22;5055912;28;819;-44
2021/01/04 00:36:48;;;;;;;;;;;;;;;21.11;42.38;101167.31;5060073;28;927;-53
2021/01/04 00:39:16;;;;;;;;;;;;;;;20.49;43.95;101173.44;5057857;28;795;-55
2021/01/04 00:41:51;;;;;;;;;;;;;;;20.59;43.76;101174.47;5079757;28;740;-55
2021/01/04 00:44:21;;;;;;;;;;;;;;;20.09;44.34;101161.66;5079875;28;811;-58
2021/01/04 00:46:47;;;;;;;;;;;;;;;19.63;45.41;101161.94;5060744;28;1186;-51
2021/01/04 00:49:19;;;;;;;;;;;;;;;20.29;44.45;101163.41;5061124;28;1151;-47
2021/01/04 00:51:48;;;;;;;;;;;;;;;21.00;42.63;101163.03;5073908;28;1918;-49
2021/01/04 00:54:17;;;;;;;;;;;;;;;20.64;43.58;101157.84;5061504;28;1194;-53
2021/01/04 00:56:42;;;;;;;;;;;;;;;20.42;44.05;101163.84;5069241;28;1286;-46
2021/01/04 00:59:26;;;;;;;;;;;;;;;20.06;44.55;101159.44;5068267;28;1250;-49
2021/01/04 01:02:03;;;;;;;;;;;;;;;19.81;45.40;101153.03;5073096;28;1301;-53
2021/01/04 01:04:29;;;;;;;;;;;;;;;19.67;45.95;101154.75;5079438;28;770;-50
2021/01/04 01:07:00;;;;;;;;;;;;;;;20.56;43.93;101147.44;5071988;28;1014;-56
2021/01/04 01:09:26;;;;;;;;;;;;;;;20.86;43.06;101149.09;5059367;28;743;-51
2021/01/04 01:11:52;;;;;;;;;;;;;;;20.63;43.53;101150.66;5044038;28;1914;-50
2021/01/04 01:14:17;;;;;;;;;;;;;;;20.48;43.76;101149.72;5073987;28;1330;-52
2021/01/04 01:17:01;;;;;;;;;;;;;;;20.25;44.25;101158.75;5078209;28;868;-59
2021/01/04 01:19:27;;;;;;;;;;;;;;;19.83;45.35;101156.31;5079121;28;868;-47
2021/01/04 01:21:53;;;;;;;;;;;;;;;19.81;45.32;101161.28;5053995;28;1006;-55
2021/01/04 01:24:18;;;;;;;;;;;;;;;19.94;45.05;101157.06;5041039;28;752;-58
2021/01/04 01:26:49;;;;;;;;;;;;;;;19.98;44.68;101154.56;5059288;28;1060;-59
2021/01/04 01:29:33;;;;;;;;;;;;;;;19.93;44.84;101157.34;5050120;28;1493;-57
2021/01/04 01:32:22;;;;;;;;;;;;;;;20.17;44.32;101149.16;5069113;28;1917;-57
2021/01/04 01:34:50;;;;;;;;;;;;;;;20.87;42.70;101144.38;5052322;28;1210;-59
2021/01/04 01:37:21;;;;;;;;;;;;;;;20.73;43.08;101136.75;5068321;28;946;-59
2021/01/04 01:39:49;;;;;;;;;;;;;;;20.45;43.77;101136.47;5058736;28;763;-58
2021/01/04 01:42:33;;;;;;;;;;;;;;;19.94;44.60;101134.16;5058508;28;819;-57
2021/01/04 01:45:18;;;;;;;;;;;;;;;19.78;44.76;101125.13;5060658;28;817;-58
2021/01/04 01:48:04;;;;;;;;;;;;;;;20.55;43.69;101126.44;5078383;28;1232;-57
2021/01/04 01:50:35;;;;;;;;;;;;;;;20.98;42.63;101118.25;5026761;28;1979;-58
2021/01/04 01:53:16;;;;;;;;;;;;;;;20.57;43.65;101118.69;5044382;28;1006;-49
2021/01/04 01:55:50;;;;;;;;;;;;;;;20.28;44.17;101111.22;5058259;28;756;-57
2021/01/04 01:58:22;;;;;;;;;;;;;;;19.94;44.72;101101.03;5058104;28;811;-56
2021/01/04 02:00:47;;;;;;;;;;;;;;;19.76;45.27;101105.28;5058140;28;786;-53
2021/01/04 02:03:15;;;;;;;;;;;;;;;20.58;43.70;101106.50;5058169;28;843;-47
2021/01/04 02:05:53;;;;;;;;;;;;;;;20.86;42.95;101102.09;5040662;28;803;-47
2021/01/04 02:08:20;;;;;;;;;;;;;;;20.61;43.46;101106.75;5057735;28;998;-58
2021/01/04 02:11:05;;;;;;;;;;;;;;;20.29;44.18;101096.31;5058058;28;1913;-58
2021/01/04 02:13:47;;;;;;;;;;;;;;;20.07;44.51;101103.13;5065633;28;856;-58
2021/01/04 02:16:14;;;;;;;;;;;;;;;20.61;43.49;101100.41;5059815;28;895;-51
2021/01/04 02:18:50;;;;;;;;;;;;;;;21.09;42.30;101100.41;5059861;28;1279;-47
2021/01/04 02:21:36;;;;;;;;;;;;;;;20.75;43.28;101103.31;5058038;28;1021;-54
2021/01/04 02:24:01;;;;;;;;;;;;;;;20.63;43.28;101111.97;5057793;28;867;-44
2021/01/04 02:26:27;;;;;;;;;;;;;;;20.03;44.69;101088.25;5057687;28;819;-46
2021/01/04 02:28:52;;;;;;;;;;;;;;;19.83;44.89;101095.59;5039703;28;673;-52
2021/01/04 02:31:18;;;;;;;;;;;;;;;20.44;44.03;101101.69;5057575;28;1963;-57
2021/01/04 02:33:43;;;;;;;;;;;;;;;21.04;42.56;101097.69;5057887;28;925;-54
2021/01/04 02:36:09;;;;;;;;;;;;;;;20.64;43.35;101091.53;5056981;28;946;-53
2021/01/04 02:38:35;;;;;;;;;;;;;;;20.55;43.65;101093.28;5057696;28;756;-56
2021/01/04 02:41:00;;;;;;;;;;;;;;;20.37;43.90;101087.41;5039947;28;820;-44
2021/01/04 02:43:26;;;;;;;;;;;;;;;19.86;44.80;101087.88;5057196;28;740;-46
2021/01/04 02:45:51;;;;;;;;;;;;;;;20.09;44.80;101081.59;5057266;28;765;-53
2021/01/04 02:48:35;;;;;;;;;;;;;;;20.96;42.57;101092.84;5057162;28;1104;-54
2021/01/04 02:51:04;;;;;;;;;;;;;;;20.66;43.38;101078.25;5076831;28;1985;-44
2021/01/04 02:53:47;;;;;;;;;;;;;;;20.55;43.55;101085.81;5057013;28;967;-48
2021/01/04 02:56:13;;;;;;;;;;;;;;;20.16;44.10;101081.22;5057191;28;803;-54
2021/01/04 02:58:57;;;;;;;;;;;;;;;19.77;44.39;101079.34;5056887;28;795;-44
2021/01/04 03:01:26;;;;;;;;;;;;;;;20.44;43.92;101085.13;5056983;28;898;-53
2021/01/04 03:03:52;;;;;;;;;;;;;;;20.92;42.66;101075.22;5056524;28;819;-52
2021/01/04 03:06:29;;;;;;;;;;;;;;;20.50;43.51;101086.69;5056310;28;1002;-54
2021/01/04 03:08:55;;;;;;;;;;;;;;;20.39;43.91;101079.63;5039463;28;949;-57
2021/01/04 03:11:20;;;;;;;;;;;;;;;19.93;44.70;101071.78;5056889;28;1977;-55
2021/01/04 03:13:49;;;;;;;;;;;;;;;20.12;44.61;101064.44;5056448;28;855;-46
2021/01/04 03:16:40;;;;;;;;;;;;;;;20.92;43.04;101070.50;5057204;28;764;-47
2021/01/04 03:19:09;;;;;;;;;;;;;;;20.64;43.39;101064.72;5048459;28;1138;-54
2021/01/04 03:21:34;;;;;;;;;;;;;;;20.52;43.82;101069.81;5038820;28;975;-56
2021/01/04 03:24:00;;;;;;;;;;;;;;;20.06;44.58;101070.28;5056936;28;767;-56
2021/01/04 03:26:39;;;;;;;;;;;;;;;19.58;45.29;101076.44;5056933;28;779;-53
2021/01/04 03:29:05;;;;;;;;;;;;;;;20.61;43.78;101079.13;5056349;28;819;-52
2021/01/04 03:31:30;;;;;;;;;;;;;;;20.88;42.78;101074.16;5056649;28;1906;-47
2021/01/04 03:33:55;;;;;;;;;;;;;;;20.58;43.71;101076.13;5056512;28;767;-55
2021/01/04 03:36:21;;;;;;;;;;;;;;;20.29;44.25;101071.47;5055914;28;935;-45
2021/01/04 03:38:46;;;;;;;;;;;;;;;19.91;45.03;101082.28;5056910;28;815;-55
2021/01/04 03:41:13;;;;;;;;;;;;;;;19.75;45.40;101071.34;5056372;28;752;-58
2021/01/04 03:43:40;;;;;;;;;;;;;;;19.73;45.69;101070.00;5056172;28;865;-53
2021/01/04 03:46:05;;;;;;;;;;;;;;;19.80;45.46;101074.09;5056473;28;744;-54
2021/01/04 03:48:31;;;;;;;;;;;;;;;20.03;44.68;101074.44;5076007;28;1215;-57
2021/01/04 03:50:56;;;;;;;;;;;;;;;19.86;45.24;101076.81;5076037;28;1910;-54
2021/01/04 03:53:22;;;;;;;;;;;;;;;19.76;45.22;101072.19;5057545;28;1002;-45
2021/01/04 03:55:47;;;;;;;;;;;;;;;19.75;45.26;101065.81;5056156;28;831;-55
2021/01/04 03:58:12;;;;;;;;;;;;;;;19.98;45.01;101066.25;5055933;28;764;-51
2021/01/04 04:00:38;;;;;;;;;;;;;;;20.04;44.67;101076.09;5056320;28;788;-58
2021/01/04 04:03:04;;;;;;;;;;;;;;;19.94;44.75;101081.72;5056584;28;792;-58
2021/01/04 04:05:31;;;;;;;;;;;;;;;19.75;45.37;101071.34;5056295;28;819;-55
2021/01/04 04:07:56;;;;;;;;;;;;;;;20.39;43.96;101071.34;5055958;28;959;-54
2021/01/04 04:10:22;;;;;;;;;;;;;;;20.93;42.75;101082.38;5056006;28;1902;-57
2021/01/04 04:12:47;;;;;;;;;;;;;;;20.49;43.72;101076.75;5055948;28;759;-43
2021/01/04 04:15:13;;;;;;;;;;;;;;;20.31;43.95;101075.59;5059627;28;780;-57
2021/01/04 04:17:39;;;;;;;;;;;;;;;20.03;44.77;101071.69;5060730;28;744;-58
2021/01/04 04:20:09;;;;;;;;;;;;;;;19.79;45.28;101072.44;5059965;28;755;-50
2021/01/04 04:22:34;;;;;;;;;;;;;;;20.09;44.67;101070.56;5059791;28;1018;-51
2021/01/04 04:25:00;;;;;;;;;;;;;;;20.92;42.60;101072.44;5060268;28;768;-49
2021/01/04 04:27:25;;;;;;;;;;;;;;;20.60;43.23;101073.91;5059680;28;800;-55
2021/01/04 04:29:50;;;;;;;;;;;;;;;20.50;43.61;101078.41;5060126;28;784;-48
2021/01/04 04:32:17;;;;;;;;;;;;;;;20.17;44.11;101067.16;5060029;28;1913;-59
2021/01/04 04:34:42;;;;;;;;;;;;;;;19.95;44.72;101064.88;5059670;28;787;-50
2021/01/04 04:37:07;;;;;;;;;;;;;;;20.41;43.99;101057.25;5059324;28;1022;-55
2021/01/04 04:39:33;;;;;;;;;;;;;;;21.08;42.42;101062.00;5060102;28;748;-51
2021/01/04 04:42:00;;;;;;;;;;;;;;;20.59;43.38;101061.19;5059458;28;815;-53
2021/01/04 04:44:28;;;;;;;;;;;;;;;20.30;44.12;101059.28;5059904;28;747;-51
2021/01/04 04:47:08;;;;;;;;;;;;;;;19.78;45.08;101065.28;5048091;28;1202;-55
2021/01/04 04:49:33;;;;;;;;;;;;;;;19.66;45.58;101062.88;5061283;28;1440;-58
2021/01/04 04:52:19;;;;;;;;;;;;;;;20.33;44.03;101070.59;5071941;28;1922;-58
2021/01/04 04:54:48;;;;;;;;;;;;;;;20.98;42.59;101068.47;5055452;28;1322;-55
2021/01/04 04:57:16;;;;;;;;;;;;;;;20.59;43.42;101067.53;5041469;28;768;-51
2021/01/04 04:59:49;;;;;;;;;;;;;;;20.38;43.77;101063.38;5059399;28;860;-53
2021/01/04 05:02:41;;;;;;;;;;;;;;;19.98;44.51;101060.72;5041722;28;889;-45
2021/01/04 05:05:10;;;;;;;;;;;;;;;19.85;45.18;101059.44;5057698;28;1366;-51
2021/01/04 05:07:44;;;;;;;;;;;;;;;20.82;42.94;101052.09;5058988;28;955;-50
2021/01/04 05:10:12;;;;;;;;;;;;;;;20.78;43.16;101059.34;5059612;28;765;-49
2021/01/04 05:12:38;;;;;;;;;;;;;;;20.51;43.82;101049.69;5058746;28;846;-58
2021/01/04 05:15:13;;;;;;;;;;;;;;;20.37;43.72;101053.41;5059277;28;759;-55
2021/01/04 05:18:00;;;;;;;;;;;;;;;19.94;44.56;101067.94;5059375;28;862;-53
2021/01/04 05:20:47;;;;;;;;;;;;;;;20.12;44.66;101058.09;5041062;28;903;-45
2021/01/04 05:23:15;;;;;;;;;;;;;;;20.98;42.59;101063.78;5041202;28;967;-51
2021/01/04 05:25:51;;;;;;;;;;;;;;;20.49;43.72;101062.94;5058385;28;819;-51
2021/01/04 05:28:36;;;;;;;;;;;;;;;20.47;43.80;101059.66;5041348;28;904;-51
2021/01/04 05:31:19;;;;;;;;;;;;;;;19.78;45.05;101065.28;5059156;28;1902;-50
2021/01/04 05:33:44;;;;;;;;;;;;;;;19.62;45.46;101066.50;5059015;28;748;-50
2021/01/04 05:36:22;;;;;;;;;;;;;;;20.54;43.71;101064.00;5058456;28;994;-52
2021/01/04 05:39:06;;;;;;;;;;;;;;;20.77;42.95;101065.97;5058805;28;811;-51
2021/01/04 05:41:38;;;;;;;;;;;;;;;20.51;43.60;101080.06;5058157;28;858;-50
2021/01/04 05:44:13;;;;;;;;;;;;;;;20.38;44.04;101080.75;5058693;28;800;-49
2021/01/04 05:46:45;;;;;;;;;;;;;;;19.96;44.93;101093.28;5045124;28;1132;-50
2021/01/04 05:49:22;;;;;;;;;;;;;;;19.86;45.36;101087.88;5059459;28;1008;-52
2021/01/04 05:51:48;;;;;;;;;;;;;;;19.83;45.35;101094.78;5072409;28;1917;-53
2021/01/04 05:54:15;;;;;;;;;;;;;;;20.06;44.67;101087.66;5058463;28;831;-50
2021/01/04 05:56:41;;;;;;;;;;;;;;;19.89;45.15;101087.28;5040341;28;811;-53
2021/01/04 05:59:06;;;;;;;;;;;;;;;19.69;45.56;101088.25;5058404;28;804;-51
2021/01/04 06:01:32;;;;;;;;;;;;;;;19.72;45.51;101082.97;5058299;28;716;-48
2021/01/04 06:04:01;;;;;;;;;;;;;;;19.70;45.42;101090.72;5057880;28;796;-51
2021/01/04 06:06:29;;;;;;;;;;;;;;;19.69;45.66;101089.06;5057885;28;951;-50
2021/01/04 06:09:01;;;;;;;;;;;;;;;19.85;45.08;101088.97;5058192;28;752;-52
2021/01/04 06:11:27;;;;;;;;;;;;;;;19.76;45.10;101089.56;5057684;28;1915;-48
2021/01/04 06:13:56;;;;;;;;;;;;;;;20.32;44.21;101084.69;5058172;28;780;-49
2021/01/04 06:16:25;;;;;;;;;;;;;;;20.99;42.48;101082.00;5040753;28;582;-44
2021/01/04 06:18:51;;;;;;;;;;;;;;;20.60;43.04;101082.19;5057569;28;815;-51
2021/01/04 06:21:20;;;;;;;;;;;;;;;20.33;44.01;101078.06;5057807;28;947;-55
2021/01/04 06:23:46;;;;;;;;;;;;;;;20.07;44.51;101081.03;5057684;28;772;-50
2021/01/04 06:26:11;;;;;;;;;;;;;;;19.53;45.66;101084.75;5057455;28;791;-48
2021/01/04 06:28:53;;;;;;;;;;;;;;;20.35;44.16;101090.44;5057893;28;736;-52
2021/01/04 06:31:36;;;;;;;;;;;;;;;21.02;42.34;101091.66;5057540;28;1910;-54
2021/01/04 06:34:03;;;;;;;;;;;;;;;20.51;43.35;101091.13;5046363;28;821;-52
2021/01/04 06:36:29;;;;;;;;;;;;;;;20.18;44.22;101088.13;5073423;28;824;-50
2021/01/04 06:38:55;;;;;;;;;;;;;;;19.98;44.66;101091.09;5038956;28;878;-49
2021/01/04 06:41:30;;;;;;;;;;;;;;;19.87;45.32;101084.00;5039252;28;1283;-54
2021/01/04 06:43:56;;;;;;;;;;;;;;;20.81;43.00;101091.91;5066973;28;916;-51
2021/01/04 06:46:21;;;;;;;;;;;;;;;20.69;42.86;101088.72;5074470;28;1035;-50
2021/01/04 06:48:46;;;;;;;;;;;;;;;20.41;43.88;101082.94;5076978;28;1032;-52
2021/01/04 06:51:31;;;;;;;;;;;;;;;20.10;44.54;101080.47;5075995;28;1992;-50
2021/01/04 06:53:56;;;;;;;;;;;;;;;19.59;45.54;101078.91;5078065;28;1165;-49
2021/01/04 06:56:29;;;;;;;;;;;;;;;19.86;45.36;101087.88;5073874;28;1188;-50
2021/01/04 06:59:13;;;;;;;;;;;;;;;20.83;43.05;101088.84;5049051;28;885;-45
2021/01/04 07:01:42;;;;;;;;;;;;;;;20.72;43.07;101095.59;5083179;28;984;-50
2021/01/04 07:04:25;;;;;;;;;;;;;;;20.51;43.66;101082.00;5085919;28;1156;-45
2021/01/04 07:06:51;;;;;;;;;;;;;;;20.13;44.54;101068.84;5071088;28;1003;-50
2021/01/04 07:09:32;;;;;;;;;;;;;;;19.82;45.27;101073.81;5085549;28;1198;-50
2021/01/04 07:11:59;;;;;;;;;;;;;;;20.79;43.06;101061.00;5068623;28;1976;-47
2021/01/04 07:14:24;;;;;;;;;;;;;;;20.56;43.58;101067.31;5049642;28;1087;-48
2021/01/04 07:16:55;;;;;;;;;;;;;;;20.23;44.35;101056.88;5053611;28;1067;-50
2021/01/04 07:19:36;;;;;;;;;;;;;;;20.03;44.53;101043.28;5067391;28;1127;-48
2021/01/04 07:22:07;;;;;;;;;;;;;;;19.81;43.87;101052.84;5068657;28;998;-42
2021/01/04 07:24:37;;;;;;;;;;;;;;;20.52;43.69;101056.84;5038644;28;768;-49
2021/01/04 07:27:12;;;;;;;;;;;;;;;21.01;42.37;101068.72;5039001;28;867;-45
2021/01/04 07:29:44;;;;;;;;;;;;;;;20.70;43.11;101067.47;5056589;28;752;-46
2021/01/04 07:32:12;;;;;;;;;;;;;;;20.50;43.76;101061.84;5056178;28;1963;-47
2021/01/04 07:34:39;;;;;;;;;;;;;;;20.06;43.74;101073.06;5056530;28;788;-43
2021/01/04 07:37:13;;;;;;;;;;;;;;;20.32;44.35;101070.88;5038631;28;967;-47
2021/01/04 07:40:02;;;;;;;;;;;;;;;21.13;42.21;101062.75;5056140;28;764;-48
2021/01/04 07:42:54;;;;;;;;;;;;;;;20.54;43.50;101064.84;5053362;28;1165;-50
2021/01/04 07:45:25;;;;;;;;;;;;;;;20.16;44.40;101048.09;5047926;28;1190;-49
2021/01/04 07:47:57;;;;;;;;;;;;;;;20.00;44.65;101044.69;5069971;28;1111;-47
2021/01/04 07:50:31;;;;;;;;;;;;;;;19.82;45.16;101054.50;5075958;28;1906;-48
2021/01/04 07:53:15;;;;;;;;;;;;;;;20.51;43.67;101049.69;5061050;28;942;-45
2021/01/04 07:55:59;;;;;;;;;;;;;;;20.84;42.86;101058.13;5055973;28;867;-51
2021/01/04 07:58:34;;;;;;;;;;;;;;;20.54;43.63;101048.28;5056338;28;736;-50
2021/01/04 08:01:12;;;;;;;;;;;;;;;20.20;44.29;101045.59;5056856;28;755;-53
2021/01/04 08:04:03;;;;;;;;;;;;;;;19.87;45.11;101039.84;5056073;28;803;-47
2021/01/04 08:06:58;;;;;;;;;;;;;;;20.29;44.30;101035.56;5054622;28;1472;-50
2021/01/04 08:09:42;;;;;;;;;;;;;;;21.26;41.83;101041.00;5051271;28;1242;-47
2021/01/04 08:12:17;;;;;;;;;;;;;;;21.60;41.20;101038.03;5056347;28;1923;-49
2021/01/04 08:14:46;;;;;;;;;;;;;;;20.82;43.00;101032.75;5056191;28;807;-51
2021/01/04 08:17:30;;;;;;;;;;;;;;;20.54;43.72;101033.63;5037881;28;812;-53
2021/01/04 08:19:56;;;;;;;;;;;;;;;19.98;43.96;101030.34;5056133;28;748;-51
2021/01/04 08:22:40;;;;;;;;;;;;;;;19.89;45.59;101034.84;5038122;28;971;-53
2021/01/04 08:25:07;;;;;;;;;;;;;;;20.94;42.95;101028.72;5055613;28;756;-50
2021/01/04 08:27:39;;;;;;;;;;;;;;;20.94;42.65;101026.78;5038558;28;792;-46
2021/01/04 08:30:04;;;;;;;;;;;;;;;20.52;43.55;101020.94;5038283;28;775;-48
2021/01/04 08:32:34;;;;;;;;;;;;;;;20.25;44.05;101015.19;5055954;28;1917;-51
2021/01/04 08:35:10;;;;;;;;;;;;;;;19.63;44.47;101021.25;5055946;28;807;-51
2021/01/04 08:37:37;;;;;;;;;;;;;;;20.15;44.86;101011.41;5055659;28;959;-54
2021/01/04 08:40:11;;;;;;;;;;;;;;;21.02;42.89;101008.72;5055435;28;820;-50
2021/01/04 08:42:37;;;;;;;;;;;;;;;20.66;43.34;101003.63;5055965;28;759;-51
2021/01/04 08:45:22;;;;;;;;;;;;;;;20.49;43.72;101002.16;5038267;28;851;-47
2021/01/04 08:47:49;;;;;;;;;;;;;;;20.13;43.60;100994.31;5068607;28;1096;-50
2021/01/04 08:50:23;;;;;;;;;;;;;;;19.92;44.74;101001.16;5057982;28;1060;-52
2021/01/04 08:52:53;;;;;;;;;;;;;;;20.73;43.43;101003.31;5061071;28;1755;-51
2021/01/04 08:55:22;;;;;;;;;;;;;;;20.81;43.04;101003.47;5055735;28;751;-50
2021/01/04 08:57:48;;;;;;;;;;;;;;;20.60;43.62;101007.59;5055825;28;815;-50
2021/01/04 09:00:31;;;;;;;;;;;;;;;20.53;43.90;101005.19;5037897;28;780;-46
2021/01/04 09:02:57;;;;;;;;;;;;;;;19.85;43.81;100997.91;5059642;28;841;-53
2021/01/04 09:05:33;;;;;;;;;;;;;;;20.43;44.38;100997.03;5059390;28;847;-51
2021/01/04 09:07:58;;;;;;;;;;;;;;;21.15;42.49;100996.94;5058776;28;967;-50
2021/01/04 09:10:35;;;;;;;;;;;;;;;20.75;43.10;100993.59;5059194;28;1902;-50
2021/01/04 09:13:10;;;;;;;;;;;;;;;20.47;43.76;100987.84;5041633;28;791;-51
2021/01/04 09:15:36;;;;;;;;;;;;;;;20.01;44.05;100993.88;5058870;28;760;-49
2021/01/04 09:18:01;;;;;;;;;;;;;;;20.11;45.00;100979.97;5059127;28;770;-53
2021/01/04 09:20:36;;;;;;;;;;;;;;;21.03;42.70;100982.72;5059265;28;815;-47
2021/01/04 09:23:31;;;;;;;;;;;;;;;20.84;42.99;100974.41;5058238;28;1018;-45
2021/01/04 09:26:03;;;;;;;;;;;;;;;20.61;43.64;100971.38;5054190;28;1320;-45
2021/01/04 09:28:39;;;;;;;;;;;;;;;20.31;43.91;100959.59;5058861;28;902;-51
2021/01/04 09:31:04;;;;;;;;;;;;;;;19.83;46.01;100954.84;5041007;28;1906;-53
2021/01/04 09:33:30;;;;;;;;;;;;;;;20.76;43.37;100955.72;5058831;28;827;-55
2021/01/04 09:36:02;;;;;;;;;;;;;;;20.82;43.18;100952.59;5040890;28;791;-50
2021/01/04 09:38:27;;;;;;;;;;;;;;;20.46;44.07;100944.75;5058205;28;955;-54
2021/01/04 09:40:53;;;;;;;;;;;;;;;20.29;44.09;100936.97;5058694;28;883;-44
2021/01/04 09:43:23;;;;;;;;;;;;;;;19.91;44.40;100930.50;5058434;28;827;-53
2021/01/04 09:45:48;;;;;;;;;;;;;;;20.58;43.86;100938.81;5058215;28;835;-54
2021/01/04 09:48:17;;;;;;;;;;;;;;;21.24;42.16;100932.63;5057929;28;1180;-48
2021/01/04 09:51:03;;;;;;;;;;;;;;;20.58;43.83;100927.78;5060315;28;1967;-47
2021/01/04 09:53:32;;;;;;;;;;;;;;;20.45;43.81;100929.28;5023578;28;1091;-50
2021/01/04 09:56:02;;;;;;;;;;;;;;;19.92;44.30;100921.09;5058364;28;755;-51
2021/01/04 09:58:27;;;;;;;;;;;;;;;19.71;45.80;100924.03;5058592;28;758;-51
2021/01/04 10:01:02;;;;;;;;;;;;;;;20.57;43.91;100923.34;5058025;28;804;-49
2021/01/04 10:03:28;;;;;;;;;;;;;;;20.94;42.99;100912.63;5058229;28;834;-51
2021/01/04 10:05:53;;;;;;;;;;;;;;;20.49;44.16;100908.25;5058012;28;812;-46
2021/01/04 10:08:20;;;;;;;;;;;;;;;20.38;44.01;100906.75;5039739;28;1262;-45
2021/01/04 10:10:55;;;;;;;;;;;;;;;19.81;44.34;100898.31;5040364;28;1975;-46
2021/01/04 10:13:21;;;;;;;;;;;;;;;20.35;44.79;100879.72;5057838;28;755;-49
2021/01/04 10:15:46;;;;;;;;;;;;;;;21.15;42.89;100883.56;5057624;28;756;-54
2021/01/04 10:18:15;;;;;;;;;;;;;;;20.70;43.45;100885.91;5040059;28;1362;-53
2021/01/04 10:20:41;;;;;;;;;;;;;;;20.49;44.33;100880.63;5040440;28;819;-54
2021/01/04 10:23:06;;;;;;;;;;;;;;;20.01;44.17;100875.19;5039608;28;966;-50
2021/01/04 10:25:36;;;;;;;;;;;;;;;19.98;45.53;100876.59;5039873;28;744;-51
2021/01/04 10:28:01;;;;;;;;;;;;;;;20.72;43.90;100878.16;5040241;28;825;-50
2021/01/04 10:30:27;;;;;;;;;;;;;;;20.80;43.45;100871.09;5039825;28;1976;-49
2021/01/04 10:33:02;;;;;;;;;;;;;;;20.61;44.12;100871.09;5057475;28;744;-49
2021/01/04 10:35:28;;;;;;;;;;;;;;;20.28;44.23;100866.28;5056995;28;767;-51
2021/01/04 10:37:53;;;;;;;;;;;;;;;19.89;44.57;100866.50;5058985;28;1183;-54
2021/01/04 10:40:20;;;;;;;;;;;;;;;20.60;44.10;100863.94;5039698;28;776;-46
2021/01/04 10:42:46;;;;;;;;;;;;;;;21.10;43.08;100860.69;5039879;28;764;-53
2021/01/04 10:45:16;;;;;;;;;;;;;;;20.65;44.02;100861.06;5038731;28;793;-50
2021/01/04 10:47:49;;;;;;;;;;;;;;;20.33;44.59;100846.09;5069940;28;1147;-51
2021/01/04 10:50:14;;;;;;;;;;;;;;;20.01;44.08;100842.06;5075350;28;1155;-50
2021/01/04 10:52:39;;;;;;;;;;;;;;;19.83;46.35;100840.91;5058178;28;1978;-54
2021/01/04 10:55:16;;;;;;;;;;;;;;;20.66;44.39;100843.38;5057134;28;776;-54
2021/01/04 10:57:42;;;;;;;;;;;;;;;20.67;44.08;100843.09;5057197;28;786;-53
2021/01/04 11:00:15;;;;;;;;;;;;;;;20.43;44.67;100837.63;5056801;28;795;-50
2021/01/04 11:02:50;;;;;;;;;;;;;;;20.07;44.72;100837.31;5039519;28;942;-51
2021/01/04 11:05:16;;;;;;;;;;;;;;;19.77;45.15;100842.88;5076361;28;832;-53
2021/01/04 11:07:42;;;;;;;;;;;;;;;20.49;44.67;100841.97;5063129;28;950;-51
2021/01/04 11:10:08;;;;;;;;;;;;;;;20.91;43.54;100824.78;5039377;28;902;-57
2021/01/04 11:12:43;;;;;;;;;;;;;;;20.66;44.04;100830.41;5056931;28;1917;-47
2021/01/04 11:15:08;;;;;;;;;;;;;;;20.33;44.60;100808.22;5056457;28;783;-54
2021/01/04 11:17:37;;;;;;;;;;;;;;;19.89;44.43;100805.78;5056782;28;803;-52
2021/01/04 11:20:07;;;;;;;;;;;;;;;20.36;45.17;100804.06;5056871;28;752;-50
2021/01/04 11:22:32;;;;;;;;;;;;;;;21.20;42.80;100794.97;5056069;28;955;-54
2021/01/04 11:24:58;;;;;;;;;;;;;;;20.78;43.76;100796.00;5056108;28;753;-53
2021/01/04 11:27:23;;;;;;;;;;;;;;;20.57;44.34;100787.19;5056647;28;772;-50
2021/01/04 11:29:49;;;;;;;;;;;;;;;20.14;44.58;100785.31;5056183;28;810;-49
2021/01/04 11:32:15;;;;;;;;;;;;;;;19.87;45.20;100794.25;5056914;28;1926;-48
2021/01/04 11:34:44;;;;;;;;;;;;;;;20.68;44.16;100780.41;5062857;28;868;-52
2021/01/04 11:37:09;;;;;;;;;;;;;;;21.05;43.00;100772.31;5066916;28;994;-46
2021/01/04 11:39:35;;;;;;;;;;;;;;;20.67;43.81;100768.50;5056544;28;787;-51
2021/01/04 11:42:01;;;;;;;;;;;;;;;20.60;43.92;100765.28;5056520;28;776;-49
2021/01/04 11:44:28;;;;;;;;;;;;;;;19.99;44.39;100761.50;5056282;28;744;-46
2021/01/04 11:46:53;;;;;;;;;;;;;;;19.70;46.46;100759.66;5062742;28;1108;-45
2021/01/04 11:49:18;;;;;;;;;;;;;;;19.71;46.60;100757.69;5076624;28;1099;-53
2021/01/04 11:51:44;;;;;;;;;;;;;;;19.67;46.65;100765.75;5070279;28;1918;-48
2021/01/04 11:54:09;;;;;;;;;;;;;;;19.66;46.64;100755.84;5056378;28;723;-50
2021/01/04 11:56:35;;;;;;;;;;;;;;;20.00;45.64;100760.38;5056287;28;823;-53
2021/01/04 11:59:00;;;;;;;;;;;;;;;20.11;45.36;100753.59;5055692;28;854;-49
2021/01/04 12:01:26;;;;;;;;;;;;;;;20.12;45.23;100749.72;5056410;28;807;-52
2021/01/04 12:03:51;;;;;;;;;;;;;;;20.29;45.02;100753.91;5056257;28;737;-56
2021/01/04 12:06:18;;;;;;;;;;;;;;;20.29;45.01;100751.97;5055379;28;1103;-50
2021/01/04 12:08:43;;;;;;;;;;;;;;;20.42;44.52;100736.56;5056558;28;744;-52
2021/01/04 12:11:09;;;;;;;;;;;;;;;20.53;44.14;100751.03;5056007;28;1905;-46
2021/01/04 12:13:34;;;;;;;;;;;;;;;20.36;44.74;100743.31;5055717;28;736;-50
2021/01/04 12:16:00;;;;;;;;;;;;;;;20.50;44.37;100743.34;5056139;28;792;-52
2021/01/04 12:18:25;;;;;;;;;;;;;;;20.53;44.43;100737.22;5056075;28;816;-51
2021/01/04 12:20:51;;;;;;;;;;;;;;;20.58;44.42;100745.44;5055992;28;958;-54
2021/01/04 12:23:16;;;;;;;;;;;;;;;20.71;43.97;100749.41;5055935;28;1017;-49
2021/01/04 12:25:42;;;;;;;;;;;;;;;20.70;44.17;100753.28;5055837;28;748;-54
2021/01/04 12:28:07;;;;;;;;;;;;;;;20.73;44.07;100746.31;5055708;28;740;-53
2021/01/04 12:30:33;;;;;;;;;;;;;;;20.79;44.00;100745.94;5056062;28;1902;-49
2021/01/04 12:32:59;;;;;;;;;;;;;;;20.58;44.38;100737.16;5055730;28;764;-51
2021/01/04 12:35:25;;;;;;;;;;;;;;;20.70;44.15;100733.94;5056218;28;748;-52
2021/01/04 12:37:50;;;;;;;;;;;;;;;20.59;44.39;100732.44;5059618;28;959;-52
2021/01/04 12:40:18;;;;;;;;;;;;;;;20.73;44.19;100729.75;5059668;28;811;-50
2021/01/04 12:42:44;;;;;;;;;;;;;;;20.71;44.13;100724.53;5059546;28;759;-49
2021/01/04 12:45:09;;;;;;;;;;;;;;;20.75;44.07;100733.84;5059732;28;783;-54
2021/01/04 12:47:35;;;;;;;;;;;;;;;20.83;43.92;100727.63;5071333;28;1152;-50
2021/01/04 12:50:00;;;;;;;;;;;;;;;20.80;43.78;100724.66;5079185;28;1032;-51
2021/01/04 12:52:26;;;;;;;;;;;;;;;20.77;44.12;100716.97;5068753;28;1913;-54
2021/01/04 12:54:51;;;;;;;;;;;;;;;20.76;43.84;100713.41;5059330;28;784;-50
2021/01/04 12:57:18;;;;;;;;;;;;;;;20.67;44.11;100715.16;5059420;28;774;-49
2021/01/04 12:59:43;;;;;;;;;;;;;;;20.65;44.42;100715.47;5059690;28;827;-46
2021/01/04 13:02:09;;;;;;;;;;;;;;;20.67;44.16;100721.53;5059255;28;799;-54
2021/01/04 13:04:38;;;;;;;;;;;;;;;20.77;44.22;100723.31;5059388;28;791;-46
2021/01/04 13:07:04;;;;;;;;;;;;;;;20.90;43.63;100723.63;5058895;28;955;-50
2021/01/04 13:09:29;;;;;;;;;;;;;;;20.94;43.70;100730.19;5059082;28;755;-49